Time;durP1;ratioP1;P1;durP2;ratioP2;P2;SDS_P1;SDS_P2;PMS_P1;PMS_P2;Temp;Humidity;BMP_temperature;BMP_pressure;BME280_temperature;BME280_humidity;BME280_pressure;Samples;Min_cycle;Max_cycle;Signal;HPM_P1;HPM_P2
2024/04/09 00:00:29;;;;;;;7.13;0.60;;;20.80;68.60;;;;;;5306619;26;20520;-71
2024/04/09 00:02:54;;;;;;;4.72;0.60;;;20.80;68.50;;;;;;5332400;26;20452;-72
2024/04/09 00:05:24;;;;;;;12.18;0.80;;;20.80;68.00;;;;;;5333725;26;20001;-72
2024/04/09 00:07:49;;;;;;;6.72;0.60;;;20.80;67.90;;;;;;5289570;26;20121;-72
2024/04/09 00:10:15;;;;;;;12.02;0.90;;;20.80;67.80;;;;;;5331633;26;20020;-72
2024/04/09 00:12:47;;;;;;;5.95;0.68;;;20.80;67.20;;;;;;5375590;26;20495;-69
2024/04/09 00:15:12;;;;;;;10.63;0.68;;;20.80;66.70;;;;;;5383105;26;20466;-72
2024/04/09 00:18:09;;;;;;;14.48;0.90;;;20.90;66.80;;;;;;5380796;26;20000;-73
2024/04/09 00:20:37;;;;;;;11.52;0.95;;;20.90;67.00;;;;;;5379757;26;20004;-70
2024/04/09 00:23:03;;;;;;;13.93;1.05;;;20.90;67.50;;;;;;5370147;26;20553;-70
2024/04/09 00:25:29;;;;;;;8.38;0.85;;;20.80;67.40;;;;;;5365038;26;20435;-71
2024/04/09 00:27:55;;;;;;;9.07;0.60;;;20.80;67.50;;;;;;5366040;26;20000;-71
2024/04/09 00:30:30;;;;;;;6.60;0.50;;;20.80;67.70;;;;;;5374378;26;20021;-71
2024/04/09 00:32:56;;;;;;;10.88;0.75;;;20.80;67.60;;;;;;5336408;26;20074;-71
2024/04/09 00:35:22;;;;;;;10.95;0.82;;;20.80;67.70;;;;;;5366504;26;20012;-72
2024/04/09 00:37:51;;;;;;;7.40;0.55;;;20.80;67.20;;;;;;5366860;26;20007;-70
2024/04/09 00:40:19;;;;;;;10.68;0.90;;;20.70;66.70;;;;;;5363760;26;20017;-71
2024/04/09 00:42:49;;;;;;;5.60;0.60;;;20.70;66.10;;;;;;5353029;26;20455;-72
2024/04/09 00:45:18;;;;;;;13.77;1.10;;;20.60;65.90;;;;;;5363765;26;20008;-71
2024/04/09 00:47:47;;;;;;;11.43;1.20;;;20.60;66.00;;;;;;5364215;26;19996;-71
2024/04/09 00:50:13;;;;;;;10.95;0.70;;;20.60;65.90;;;;;;5361595;26;20000;-72
2024/04/09 00:52:43;;;;;;;9.10;0.82;;;20.60;66.30;;;;;;5343769;26;20462;-70
2024/04/09 00:55:16;;;;;;;15.05;1.00;;;20.60;66.80;;;;;;5344026;26;20069;-71
2024/04/09 00:57:48;;;;;;;6.10;0.68;;;20.50;67.20;;;;;;5345998;26;20004;-70
2024/04/09 01:00:16;;;;;;;12.70;0.90;;;20.50;67.60;;;;;;5291904;26;20004;-72
2024/04/09 01:02:42;;;;;;;6.55;0.70;;;20.50;67.50;;;;;;5369746;26;20423;-71
2024/04/09 01:05:10;;;;;;;10.85;1.05;;;20.50;67.60;;;;;;5366548;26;20004;-71
2024/04/09 01:07:35;;;;;;;10.60;0.90;;;20.40;67.80;;;;;;5367347;26;20016;-72
2024/04/09 01:10:01;;;;;;;7.05;0.57;;;20.30;67.80;;;;;;5368229;26;20308;-72
2024/04/09 01:12:27;;;;;;;13.60;1.10;;;20.40;68.30;;;;;;5370048;26;20459;-73
2024/04/09 01:14:52;;;;;;;8.27;0.60;;;20.30;68.10;;;;;;5380589;26;19999;-70
2024/04/09 01:17:19;;;;;;;10.30;0.93;;;20.30;68.30;;;;;;5383361;26;20000;-70
2024/04/09 01:19:45;;;;;;;11.65;0.80;;;20.30;69.20;;;;;;5355787;26;20005;-72
2024/04/09 01:22:11;;;;;;;14.13;0.93;;;20.30;68.80;;;;;;5351899;26;20000;-69
2024/04/09 01:24:44;;;;;;;13.32;1.13;;;20.30;68.80;;;;;;5363412;26;20018;-70
2024/04/09 01:27:14;;;;;;;14.88;1.13;;;20.30;68.60;;;;;;5347053;26;20004;-72
2024/04/09 01:29:43;;;;;;;12.75;1.02;;;20.30;68.30;;;;;;5364367;26;20095;-70
2024/04/09 01:32:09;;;;;;;13.15;1.00;;;20.30;68.00;;;;;;5374443;26;20392;-68
2024/04/09 01:34:35;;;;;;;13.48;1.10;;;20.30;68.30;;;;;;5378213;26;20007;-71
2024/04/09 01:37:04;;;;;;;10.35;1.00;;;20.20;68.70;;;;;;5383389;26;20001;-71
2024/04/09 01:39:30;;;;;;;18.23;0.90;;;20.20;67.80;;;;;;5380426;26;20000;-72
2024/04/09 01:41:56;;;;;;;13.25;1.27;;;20.20;68.30;;;;;;5379213;26;20012;-72
2024/04/09 01:44:22;;;;;;;9.65;0.80;;;20.20;68.10;;;;;;5375580;26;20000;-72
2024/04/09 01:46:48;;;;;;;12.50;1.13;;;20.20;68.10;;;;;;5376376;26;19996;-71
2024/04/09 01:49:18;;;;;;;14.23;1.17;;;20.20;68.30;;;;;;5373942;26;20142;-71
2024/04/09 01:51:44;;;;;;;13.40;1.08;;;20.20;67.80;;;;;;5383445;26;20359;-73
2024/04/09 01:54:10;;;;;;;9.93;0.85;;;20.20;67.40;;;;;;5383439;26;20036;-72
2024/04/09 01:56:35;;;;;;;7.00;0.80;;;20.20;67.80;;;;;;5380813;26;20003;-71
2024/04/09 01:59:01;;;;;;;12.93;1.10;;;20.20;67.30;;;;;;5330729;26;20504;-71
2024/04/09 02:01:27;;;;;;;10.43;0.88;;;20.20;67.30;;;;;;5344045;26;20040;-71
2024/04/09 02:03:56;;;;;;;16.23;1.15;;;20.20;67.90;;;;;;5314055;26;20341;-71
2024/04/09 02:06:23;;;;;;;15.45;0.95;;;20.20;67.20;;;;;;5369936;26;20019;-72
2024/04/09 02:08:55;;;;;;;13.65;1.10;;;20.10;67.40;;;;;;5363058;26;20015;-72
2024/04/09 02:11:22;;;;;;;12.77;1.20;;;20.10;68.50;;;;;;5349308;26;20011;-71
2024/04/09 02:13:48;;;;;;;15.82;1.02;;;20.10;68.70;;;;;;5345774;26;20090;-71
2024/04/09 02:16:15;;;;;;;10.77;1.15;;;20.10;68.70;;;;;;5339592;26;20614;-71
2024/04/09 02:18:42;;;;;;;12.05;1.00;;;20.00;69.20;;;;;;5357342;26;20078;-71
2024/04/09 02:21:09;;;;;;;14.90;1.08;;;20.00;69.50;;;;;;5372923;26;20529;-69
2024/04/09 02:23:39;;;;;;;10.98;0.90;;;20.00;70.50;;;;;;5365885;26;20000;-71
2024/04/09 02:26:05;;;;;;;16.00;1.08;;;20.00;71.10;;;;;;5339977;26;19997;-71
2024/04/09 02:28:30;;;;;;;15.82;1.38;;;20.00;71.70;;;;;;5332645;26;20629;-69
2024/04/09 02:30:56;;;;;;;11.25;0.93;;;19.90;72.10;;;;;;5364532;26;20044;-71
2024/04/09 02:33:22;;;;;;;12.05;1.13;;;19.90;72.60;;;;;;5370027;26;20019;-72
2024/04/09 02:35:54;;;;;;;16.08;1.13;;;19.80;72.70;;;;;;5345442;26;19997;-71
2024/04/09 02:38:20;;;;;;;12.90;1.05;;;19.80;73.00;;;;;;5367355;26;20439;-69
2024/04/09 02:40:45;;;;;;;6.43;0.50;;;19.70;73.40;;;;;;5370442;26;20000;-71
2024/04/09 02:43:11;;;;;;;6.40;0.63;;;19.60;73.60;;;;;;5367072;26;20000;-70
2024/04/09 02:45:36;;;;;;;6.85;0.68;;;19.60;73.60;;;;;;5367716;26;20000;-71
2024/04/09 02:48:02;;;;;;;12.88;1.10;;;19.60;73.50;;;;;;5364878;26;20024;-72
2024/04/09 02:50:27;;;;;;;15.32;1.10;;;19.60;73.40;;;;;;5365885;26;20015;-70
2024/04/09 02:52:54;;;;;;;7.95;0.80;;;19.60;73.10;;;;;;5357671;26;20010;-71
2024/04/09 02:55:20;;;;;;;11.00;0.90;;;19.60;72.80;;;;;;5353460;26;20448;-70
2024/04/09 02:57:52;;;;;;;10.52;1.10;;;19.60;72.90;;;;;;5350340;26;19995;-71
2024/04/09 03:00:21;;;;;;;10.32;0.90;;;19.60;73.10;;;;;;5374349;26;20016;-71
2024/04/09 03:02:53;;;;;;;9.20;0.90;;;19.60;73.10;;;;;;5346358;26;20000;-72
2024/04/09 03:05:29;;;;;;;10.50;1.00;;;19.60;73.20;;;;;;5377899;26;20010;-70
2024/04/09 03:07:55;;;;;;;13.00;1.05;;;19.60;72.80;;;;;;5370617;26;20101;-71
2024/04/09 03:10:21;;;;;;;16.70;1.10;;;19.60;72.40;;;;;;5345099;26;20000;-71
2024/04/09 03:12:46;;;;;;;13.93;1.10;;;19.60;72.20;;;;;;5369289;26;20019;-71
2024/04/09 03:15:12;;;;;;;12.30;1.00;;;19.60;72.00;;;;;;5365729;26;20019;-71
2024/04/09 03:17:41;;;;;;;14.40;1.30;;;19.50;72.10;;;;;;5334191;26;20009;-72
2024/04/09 03:20:10;;;;;;;12.63;1.10;;;19.50;72.40;;;;;;5312672;26;20324;-72
2024/04/09 03:22:35;;;;;;;11.02;1.08;;;19.50;72.80;;;;;;5317974;26;20469;-71
2024/04/09 03:25:01;;;;;;;16.33;1.25;;;19.40;72.50;;;;;;5365501;26;19996;-72
2024/04/09 03:27:27;;;;;;;11.02;1.00;;;19.40;72.40;;;;;;5358301;26;20000;-70
2024/04/09 03:29:52;;;;;;;16.83;1.10;;;19.40;72.30;;;;;;5371751;26;19996;-69
2024/04/09 03:32:18;;;;;;;15.88;1.17;;;19.40;72.70;;;;;;5366594;26;20015;-70
2024/04/09 03:34:46;;;;;;;14.35;1.15;;;19.40;72.40;;;;;;5365032;26;20008;-71
2024/04/09 03:37:12;;;;;;;19.20;1.30;;;19.40;72.50;;;;;;5369002;26;20011;-70
2024/04/09 03:39:37;;;;;;;10.45;0.90;;;19.40;72.60;;;;;;5363514;26;19996;-71
2024/04/09 03:42:04;;;;;;;9.25;0.63;;;19.40;72.60;;;;;;5299970;26;20329;-70
2024/04/09 03:44:29;;;;;;;10.15;1.13;;;19.40;72.90;;;;;;5315714;26;20308;-70
2024/04/09 03:46:56;;;;;;;17.42;1.10;;;19.40;72.70;;;;;;5326059;26;20001;-70
2024/04/09 03:49:22;;;;;;;14.02;0.98;;;19.40;72.50;;;;;;5327926;26;20290;-68
2024/04/09 03:51:47;;;;;;;14.57;1.17;;;19.40;72.60;;;;;;5280699;26;20005;-71
2024/04/09 03:54:13;;;;;;;10.13;0.90;;;19.40;72.20;;;;;;5300519;26;20001;-73
2024/04/09 03:56:39;;;;;;;7.80;0.70;;;19.50;72.40;;;;;;5265354;27;20050;-71
2024/04/09 03:59:11;;;;;;;9.65;0.75;;;19.40;72.20;;;;;;5295069;26;20266;-71
2024/04/09 04:01:37;;;;;;;11.93;0.90;;;19.40;72.10;;;;;;5262999;26;20395;-71
2024/04/09 04:04:03;;;;;;;13.07;1.00;;;19.50;72.30;;;;;;5230534;27;20009;-72
2024/04/09 04:06:28;;;;;;;12.15;0.90;;;19.40;72.30;;;;;;5273224;27;20029;-69
2024/04/09 04:08:54;;;;;;;11.70;0.88;;;19.40;72.70;;;;;;5188601;27;20011;-70
2024/04/09 04:11:19;;;;;;;12.70;0.90;;;19.40;72.30;;;;;;5209775;26;20347;-71
2024/04/09 04:13:45;;;;;;;12.07;0.98;;;19.40;72.30;;;;;;5193431;27;20031;-70
2024/04/09 04:16:12;;;;;;;11.60;0.82;;;19.40;72.40;;;;;;5196736;27;20035;-70
2024/04/09 04:18:45;;;;;;;14.18;1.00;;;19.40;72.70;;;;;;5187861;27;20003;-71
2024/04/09 04:21:12;;;;;;;9.77;0.68;;;19.40;72.60;;;;;;5222624;27;20006;-71
2024/04/09 04:23:42;;;;;;;8.82;0.60;;;19.50;72.70;;;;;;5224664;27;20362;-70
2024/04/09 04:26:09;;;;;;;16.60;1.20;;;19.50;72.50;;;;;;5213036;27;20078;-67
2024/04/09 04:28:38;;;;;;;;;;;19.50;72.20;;;;;;5190183;27;20417;-71
2024/04/09 04:31:07;;;;;;;3.92;0.50;;;19.50;71.30;;;;;;5193145;27;19999;-69
2024/04/09 04:33:33;;;;;;;9.60;0.80;;;19.50;71.10;;;;;;5181629;27;20014;-72
2024/04/09 04:35:59;;;;;;;10.32;0.70;;;19.50;71.50;;;;;;5157705;27;20012;-71
2024/04/09 04:38:25;;;;;;;6.88;0.55;;;19.60;71.00;;;;;;5132243;27;20003;-68
2024/04/09 04:40:51;;;;;;;7.60;0.63;;;19.60;71.00;;;;;;5149148;27;20014;-70
2024/04/09 04:43:18;;;;;;;6.57;0.50;;;19.70;70.50;;;;;;5131539;27;20036;-71
2024/04/09 04:45:44;;;;;;;10.05;0.70;;;19.60;70.30;;;;;;5123820;27;20006;-70
2024/04/09 04:48:11;;;;;;;10.35;0.98;;;19.70;70.50;;;;;;5100885;27;20017;-70
2024/04/09 04:50:37;;;;;;;6.78;0.45;;;19.70;70.40;;;;;;5104702;27;20001;-69
2024/04/09 04:53:09;;;;;;;4.85;0.50;;;19.80;70.60;;;;;;5120293;27;20052;-69
2024/04/09 04:55:36;;;;;;;1.80;0.35;;;19.80;70.30;;;;;;5132139;27;20005;-71
2024/04/09 04:58:02;;;;;;;5.30;0.50;;;19.90;69.40;;;;;;5170373;27;20019;-71
2024/04/09 05:00:28;;;;;;;9.73;0.70;;;19.90;70.10;;;;;;5153528;27;20086;-71
2024/04/09 05:02:54;;;;;;;4.75;0.30;;;19.90;70.10;;;;;;5167140;27;20015;-70
2024/04/09 05:05:20;;;;;;;1.52;0.20;;;20.00;70.00;;;;;;5205278;27;20007;-71
2024/04/09 05:07:47;;;;;;;5.90;0.40;;;20.00;70.00;;;;;;5208536;27;20069;-70
2024/04/09 05:10:13;;;;;;;6.03;0.55;;;20.00;70.30;;;;;;5220328;27;20017;-70
2024/04/09 05:12:44;;;;;;;4.13;0.28;;;20.00;70.50;;;;;;5211221;27;20375;-71
2024/04/09 05:15:10;;;;;;;6.43;0.50;;;20.10;70.30;;;;;;5178351;27;20031;-70
2024/04/09 05:17:36;;;;;;;3.03;0.30;;;20.00;70.10;;;;;;5210016;27;20467;-71
2024/04/09 05:20:03;;;;;;;7.07;0.40;;;20.00;70.10;;;;;;5197702;27;20008;-71
2024/04/09 05:22:30;;;;;;;4.95;0.60;;;20.00;70.60;;;;;;5236618;27;20051;-70
2024/04/09 05:24:55;;;;;;;2.60;0.40;;;20.10;70.70;;;;;;5221482;27;20003;-71
2024/04/09 05:27:21;;;;;;;13.45;0.90;;;20.00;70.30;;;;;;5272998;26;20016;-70
2024/04/09 05:29:47;;;;;;;6.20;0.38;;;20.00;70.20;;;;;;5312567;26;20446;-71
2024/04/09 05:32:14;;;;;;;4.85;0.50;;;20.00;70.00;;;;;;5285497;26;20013;-71
2024/04/09 05:34:40;;;;;;;3.03;0.40;;;20.00;70.30;;;;;;5269447;26;20021;-70
2024/04/09 05:37:06;;;;;;;6.95;0.60;;;20.00;70.30;;;;;;5218295;26;20743;-70
2024/04/09 05:39:32;;;;;;;3.42;0.45;;;19.90;70.30;;;;;;5253195;27;20542;-71
2024/04/09 05:41:57;;;;;;;15.02;0.80;;;19.80;70.70;;;;;;5275040;26;20025;-70
2024/04/09 05:44:23;;;;;;;5.53;0.40;;;19.80;71.00;;;;;;5314767;26;20455;-68
2024/04/09 05:46:48;;;;;;;4.30;0.30;;;19.70;71.60;;;;;;5338161;26;20040;-70
2024/04/09 05:49:14;;;;;;;4.40;0.50;;;19.70;71.40;;;;;;5349464;26;20000;-71
2024/04/09 05:51:46;;;;;;;4.35;0.40;;;19.70;71.80;;;;;;5371352;26;20000;-69
2024/04/09 05:54:12;;;;;;;3.70;0.30;;;19.60;72.50;;;;;;5381918;26;20001;-71
2024/04/09 05:56:38;;;;;;;2.60;0.22;;;19.60;73.00;;;;;;5316675;26;19998;-68
2024/04/09 05:59:03;;;;;;;1.58;0.15;;;19.50;73.10;;;;;;5312332;26;20001;-70
2024/04/09 06:01:29;;;;;;;4.30;0.40;;;19.50;73.20;;;;;;5309269;26;20013;-71
2024/04/09 06:03:55;;;;;;;4.38;0.20;;;19.50;73.60;;;;;;5314553;26;20492;-70
2024/04/09 06:06:20;;;;;;;4.68;0.50;;;19.50;74.00;;;;;;5316706;26;20005;-70
2024/04/09 06:08:46;;;;;;;2.63;0.30;;;19.50;74.30;;;;;;5358244;26;20470;-70
2024/04/09 06:11:11;;;;;;;1.45;0.10;;;19.50;75.60;;;;;;5383567;26;20022;-71
2024/04/09 06:13:38;;;;;;;3.38;0.35;;;19.40;75.60;;;;;;5383399;26;20072;-70
2024/04/09 06:16:04;;;;;;;4.43;0.40;;;19.30;76.00;;;;;;5354242;26;20540;-71
2024/04/09 06:18:29;;;;;;;3.40;0.30;;;19.20;76.60;;;;;;5379355;26;20004;-71
2024/04/09 06:20:55;;;;;;;7.03;0.47;;;19.30;76.80;;;;;;5381556;26;20039;-70
2024/04/09 06:23:27;;;;;;;3.40;0.17;;;19.20;77.10;;;;;;5359641;26;20012;-68
2024/04/09 06:25:58;;;;;;;2.55;0.10;;;19.30;77.40;;;;;;5377810;26;19996;-69
2024/04/09 06:28:23;;;;;;;5.28;0.35;;;19.30;77.40;;;;;;5328275;26;20000;-70
2024/04/09 06:30:49;;;;;;;1.80;0.20;;;19.40;78.10;;;;;;5363390;26;20015;-71
2024/04/09 06:33:15;;;;;;;1.23;0.17;;;19.30;78.00;;;;;;5379711;26;20142;-72
2024/04/09 06:35:40;;;;;;;1.95;0.10;;;19.30;78.30;;;;;;5372720;26;20068;-71
2024/04/09 06:38:06;;;;;;;5.40;0.22;;;19.30;78.60;;;;;;5379282;26;20320;-71
2024/04/09 06:40:32;;;;;;;1.35;0.13;;;19.30;79.00;;;;;;5379269;26;20316;-72
2024/04/09 06:42:58;;;;;;;4.10;0.30;;;19.20;79.60;;;;;;5381952;26;20014;-70
2024/04/09 06:45:24;;;;;;;4.82;0.20;;;19.20;79.90;;;;;;5378615;26;21161;-71
2024/04/09 06:47:50;;;;;;;2.65;0.20;;;19.10;79.80;;;;;;5364746;26;20001;-71
2024/04/09 06:50:16;;;;;;;1.50;0.15;;;19.00;80.10;;;;;;5327760;26;20330;-70
2024/04/09 06:52:41;;;;;;;2.90;0.25;;;18.90;81.40;;;;;;5379759;26;20000;-71
2024/04/09 06:55:08;;;;;;;3.05;0.20;;;18.90;82.30;;;;;;5332704;26;20015;-71
2024/04/09 06:57:33;;;;;;;2.00;0.10;;;18.80;82.50;;;;;;5382517;26;20015;-71
2024/04/09 06:59:59;;;;;;;2.67;0.10;;;18.80;82.80;;;;;;5351992;26;20003;-70
2024/04/09 07:02:31;;;;;;;2.22;0.20;;;18.70;83.20;;;;;;5374591;26;20004;-70
2024/04/09 07:04:57;;;;;;;1.05;0.10;;;18.60;83.40;;;;;;5369148;26;20017;-70
2024/04/09 07:07:23;;;;;;;1.73;0.10;;;18.70;83.00;;;;;;5369615;26;20443;-70
2024/04/09 07:09:55;;;;;;;0.22;0.03;;;18.60;83.30;;;;;;5370592;26;20011;-68
2024/04/09 07:12:21;;;;;;;1.02;0.17;;;18.50;83.90;;;;;;5350123;26;20004;-70
2024/04/09 07:14:46;;;;;;;0.70;0.10;;;18.40;84.40;;;;;;5370008;26;20351;-68
2024/04/09 07:17:12;;;;;;;1.17;0.13;;;18.20;84.40;;;;;;5370115;26;20007;-71
2024/04/09 07:19:37;;;;;;;0.70;0.05;;;18.10;84.50;;;;;;5347640;26;20011;-71
2024/04/09 07:22:03;;;;;;;0.70;0.20;;;18.00;84.40;;;;;;5342652;26;20987;-71
2024/04/09 07:24:29;;;;;;;0.63;0.10;;;17.90;84.60;;;;;;5347842;26;20005;-71
2024/04/09 07:26:54;;;;;;;0.93;0.10;;;17.90;84.50;;;;;;5353684;26;20038;-70
2024/04/09 07:29:20;;;;;;;0.13;0.00;;;17.80;83.70;;;;;;5348967;26;20008;-69
2024/04/09 07:31:45;;;;;;;1.13;0.17;;;17.90;84.00;;;;;;5370748;26;20005;-71
2024/04/09 07:34:11;;;;;;;0.10;0.00;;;17.80;83.30;;;;;;5380234;26;20006;-70
2024/04/09 07:36:43;;;;;;;1.17;0.13;;;17.80;83.50;;;;;;5373599;26;20011;-71
2024/04/09 07:39:09;;;;;;;0.00;0.00;;;17.70;83.60;;;;;;5325441;26;20002;-70
2024/04/09 07:41:34;;;;;;;1.10;0.08;;;17.60;84.00;;;;;;5325217;26;20005;-70
2024/04/09 07:44:00;;;;;;;0.15;0.00;;;17.60;84.80;;;;;;5331494;26;20005;-71
2024/04/09 07:46:26;;;;;;;0.43;0.10;;;17.50;85.10;;;;;;5294872;26;20005;-68
2024/04/09 07:48:51;;;;;;;0.10;0.00;;;17.50;85.70;;;;;;5259403;26;20008;-71
2024/04/09 07:51:17;;;;;;;0.20;0.10;;;17.50;85.60;;;;;;5316098;26;20013;-69
2024/04/09 07:53:42;;;;;;;0.90;0.00;;;17.40;85.60;;;;;;5329302;26;20013;-70
2024/04/09 07:56:09;;;;;;;1.52;0.10;;;17.30;86.10;;;;;;5292155;26;20016;-68
2024/04/09 07:58:34;;;;;;;0.95;0.00;;;17.20;82.00;;;;;;5309793;26;19997;-71
2024/04/09 08:01:02;;;;;;;0.00;0.00;;;17.20;78.60;;;;;;5278512;26;20003;-72
2024/04/09 08:03:27;;;;;;;2.08;0.00;;;17.10;76.80;;;;;;5267643;26;20083;-71
2024/04/09 08:05:53;;;;;;;0.30;0.10;;;17.10;76.40;;;;;;5313499;26;20460;-71
2024/04/09 08:08:18;;;;;;;0.40;0.10;;;16.90;75.10;;;;;;5299936;26;20416;-71
2024/04/09 08:10:44;;;;;;;1.05;0.10;;;16.80;76.00;;;;;;5312767;26;20009;-70
2024/04/09 08:13:10;;;;;;;0.30;0.00;;;16.70;76.70;;;;;;5316484;26;20019;-72
2024/04/09 08:15:36;;;;;;;0.80;0.10;;;16.60;78.20;;;;;;5322401;26;20021;-72
2024/04/09 08:18:02;;;;;;;0.20;0.00;;;16.50;78.00;;;;;;5291321;26;20043;-71
2024/04/09 08:20:28;;;;;;;0.03;0.00;;;16.40;78.00;;;;;;5268768;26;20029;-72
2024/04/09 08:22:54;;;;;;;0.38;0.17;;;16.30;78.30;;;;;;5325303;26;20011;-71
2024/04/09 08:25:20;;;;;;;0.10;0.00;;;16.20;77.90;;;;;;5343855;26;22646;-71
2024/04/09 08:27:46;;;;;;;0.00;0.00;;;16.00;77.20;;;;;;5365303;26;20575;-70
2024/04/09 08:30:14;;;;;;;0.10;0.08;;;15.90;77.10;;;;;;5340148;26;20607;-72
2024/04/09 08:32:41;;;;;;;0.00;0.00;;;15.90;77.30;;;;;;5334416;26;20005;-71
2024/04/09 08:35:13;;;;;;;0.88;0.10;;;15.70;77.30;;;;;;5331454;26;20016;-70
2024/04/09 08:37:44;;;;;;;3.42;0.20;;;15.60;77.00;;;;;;5339305;26;20360;-69
2024/04/09 08:40:10;;;;;;;1.20;0.00;;;15.60;78.00;;;;;;5337292;26;20475;-70
2024/04/09 08:42:40;;;;;;;0.00;0.00;;;15.50;77.10;;;;;;5353730;26;23238;-70
2024/04/09 08:45:11;;;;;;;1.10;0.08;;;15.60;77.60;;;;;;5379250;26;20416;-70
2024/04/09 08:47:37;;;;;;;0.25;0.00;;;15.60;78.10;;;;;;5377922;26;20019;-70
2024/04/09 08:50:03;;;;;;;1.33;0.00;;;15.70;78.40;;;;;;5373224;26;20000;-71
2024/04/09 08:52:32;;;;;;;1.20;0.20;;;15.70;78.70;;;;;;5332332;26;20019;-70
2024/04/09 08:54:58;;;;;;;0.20;0.00;;;15.70;78.30;;;;;;5350564;26;20004;-71
2024/04/09 08:57:23;;;;;;;0.00;0.00;;;15.70;77.90;;;;;;5365664;26;20376;-69
2024/04/09 08:59:50;;;;;;;2.42;0.10;;;15.60;75.50;;;;;;5377268;26;20007;-70
2024/04/09 09:02:16;;;;;;;0.47;0.10;;;15.50;76.10;;;;;;5378576;26;20000;-71
2024/04/09 09:04:43;;;;;;;0.35;0.00;;;15.50;76.40;;;;;;5380904;26;20070;-68
2024/04/09 09:07:13;;;;;;;0.00;0.00;;;15.60;76.10;;;;;;5382945;26;20330;-69
2024/04/09 09:09:39;;;;;;;1.30;0.10;;;15.50;75.60;;;;;;5383619;26;20000;-70
2024/04/09 09:12:08;;;;;;;0.93;0.08;;;15.40;75.90;;;;;;5385494;26;20078;-69
2024/04/09 09:14:40;;;;;;;0.30;0.00;;;15.40;76.40;;;;;;5367853;26;20016;-70
2024/04/09 09:17:12;;;;;;;0.77;0.00;;;15.40;77.00;;;;;;5349330;26;20008;-70
2024/04/09 09:19:38;;;;;;;2.28;0.10;;;15.50;75.90;;;;;;5369527;26;20389;-69
2024/04/09 09:22:08;;;;;;;0.10;0.00;;;15.50;75.30;;;;;;5378589;26;20011;-71
2024/04/09 09:24:36;;;;;;;0.75;0.10;;;15.50;75.50;;;;;;5379348;26;20043;-71
2024/04/09 09:27:05;;;;;;;0.00;0.00;;;15.50;76.20;;;;;;5371039;26;20036;-70
2024/04/09 09:29:32;;;;;;;1.45;0.00;;;15.40;75.20;;;;;;5374689;26;20417;-70
2024/04/09 09:31:59;;;;;;;0.00;0.00;;;15.40;75.80;;;;;;5350883;26;20073;-70
2024/04/09 09:34:37;;;;;;;2.50;0.10;;;15.40;76.80;;;;;;5370394;26;20040;-70
2024/04/09 09:37:10;;;;;;;1.02;0.10;;;15.50;76.00;;;;;;5374284;26;20003;-72
2024/04/09 09:39:40;;;;;;;;;;;15.40;74.40;;;;;;5375275;26;20105;-71
2024/04/09 09:42:07;;;;;;;0.05;0.00;;;15.30;75.00;;;;;;5374782;26;19929;-69
2024/04/09 09:44:38;;;;;;;1.10;0.00;;;15.30;74.90;;;;;;5356994;26;20025;-71
2024/04/09 09:47:04;;;;;;;0.10;0.00;;;15.30;74.60;;;;;;5355450;26;20000;-70
2024/04/09 09:49:30;;;;;;;0.52;0.03;;;15.10;74.20;;;;;;5353633;26;20481;-68
2024/04/09 09:51:57;;;;;;;1.27;0.10;;;15.00;74.70;;;;;;5374277;26;20001;-70
2024/04/09 09:54:23;;;;;;;0.10;0.00;;;14.90;73.10;;;;;;5368309;26;20004;-71
2024/04/09 09:57:01;;;;;;;0.98;0.10;;;14.80;71.80;;;;;;5368262;26;20004;-70
2024/04/09 09:59:53;;;;;;;0.32;0.00;;;14.70;72.60;;;;;;5364777;26;20000;-71
2024/04/09 10:02:20;;;;;;;0.00;0.00;;;14.70;73.50;;;;;;5312316;26;20384;-71
2024/04/09 10:04:46;;;;;;;0.65;0.00;;;14.70;72.10;;;;;;5330098;26;20051;-70
2024/04/09 10:07:13;;;;;;;0.75;0.10;;;14.70;73.00;;;;;;5328941;26;20008;-69
2024/04/09 10:10:05;;;;;;;0.13;0.10;;;14.80;73.70;;;;;;5362495;26;20005;-69
2024/04/09 10:12:35;;;;;;;0.15;0.03;;;14.80;72.70;;;;;;5364360;26;20048;-70
2024/04/09 10:15:05;;;;;;;1.00;0.00;;;14.60;72.90;;;;;;5382664;26;19997;-71
2024/04/09 10:17:52;;;;;;;1.23;0.10;;;14.40;74.10;;;;;;5374565;26;20008;-70
2024/04/09 10:20:31;;;;;;;1.75;0.00;;;14.20;74.20;;;;;;5374358;26;20004;-70
2024/04/09 10:23:02;;;;;;;0.32;0.00;;;14.30;75.00;;;;;;5375916;26;20081;-71
2024/04/09 10:25:42;;;;;;;0.00;0.00;;;14.30;74.70;;;;;;5381050;26;20822;-67
2024/04/09 10:28:10;;;;;;;0.68;0.10;;;14.20;74.90;;;;;;5368583;26;20004;-69
2024/04/09 10:30:40;;;;;;;0.70;0.00;;;14.20;74.60;;;;;;5371332;26;20019;-69
2024/04/09 10:33:06;;;;;;;2.60;0.10;;;14.10;75.30;;;;;;5369815;26;20014;-69
2024/04/09 10:35:33;;;;;;;0.68;0.10;;;14.00;76.20;;;;;;5366655;26;20098;-69
2024/04/09 10:38:04;;;;;;;1.35;0.15;;;13.90;76.30;;;;;;5365730;26;20037;-69
2024/04/09 10:40:31;;;;;;;3.20;0.15;;;14.00;76.50;;;;;;5366182;26;20012;-69
2024/04/09 10:43:00;;;;;;;1.25;0.10;;;14.10;76.00;;;;;;5340621;26;20015;-68
2024/04/09 10:45:25;;;;;;;0.65;0.10;;;14.10;75.80;;;;;;5363750;26;20011;-69
2024/04/09 10:47:51;;;;;;;1.70;0.10;;;14.00;76.50;;;;;;5349144;26;20466;-70
2024/04/09 10:50:24;;;;;;;0.55;0.10;;;14.10;76.50;;;;;;5364350;26;20082;-69
2024/04/09 10:52:49;;;;;;;2.95;0.15;;;14.20;77.00;;;;;;5370508;26;20015;-68
2024/04/09 10:55:16;;;;;;;0.98;0.08;;;14.20;75.50;;;;;;5373316;26;20462;-69
2024/04/09 10:57:53;;;;;;;2.53;0.10;;;14.10;76.20;;;;;;5385859;26;20111;-69
2024/04/09 11:00:19;;;;;;;0.98;0.00;;;14.00;76.20;;;;;;5364990;26;20044;-68
2024/04/09 11:02:46;;;;;;;0.65;0.05;;;13.80;76.60;;;;;;5353085;26;20028;-69
2024/04/09 11:05:13;;;;;;;1.25;0.17;;;13.80;77.50;;;;;;5368974;26;20000;-69
2024/04/09 11:07:43;;;;;;;0.47;0.00;;;13.60;78.40;;;;;;5364797;26;20008;-67
2024/04/09 11:10:14;;;;;;;1.37;0.00;;;13.60;79.60;;;;;;5369680;26;28813;-66
2024/04/09 11:12:53;;;;;;;0.00;0.00;;;13.40;79.60;;;;;;5365681;26;20339;-70
2024/04/09 11:15:19;;;;;;;0.08;0.00;;;13.10;80.30;;;;;;5380021;26;20053;-69
2024/04/09 11:17:45;;;;;;;0.17;0.00;;;13.10;81.20;;;;;;5379178;26;20040;-67
2024/04/09 11:20:15;;;;;;;0.13;0.00;;;13.00;81.10;;;;;;5365504;26;20500;-68
2024/04/09 11:22:43;;;;;;;0.05;0.00;;;12.90;82.20;;;;;;5365304;26;20478;-71
2024/04/09 11:25:11;;;;;;;0.08;0.00;;;12.80;82.30;;;;;;5361466;26;20000;-69
2024/04/09 11:27:41;;;;;;;0.98;0.10;;;12.80;82.60;;;;;;5363845;26;20014;-71
2024/04/09 11:30:07;;;;;;;0.65;0.00;;;12.80;83.40;;;;;;5368442;26;20028;-71
2024/04/09 11:32:37;;;;;;;0.00;0.00;;;12.80;83.60;;;;;;5377135;26;20104;-70
2024/04/09 11:35:03;;;;;;;0.10;0.00;;;12.70;83.00;;;;;;5369553;26;20004;-71
2024/04/09 11:37:30;;;;;;;0.08;0.00;;;12.70;84.10;;;;;;5365704;26;20359;-69
2024/04/09 11:39:56;;;;;;;2.83;0.17;;;12.70;84.00;;;;;;5375683;26;20005;-70
2024/04/09 11:42:28;;;;;;;0.10;0.00;;;12.80;83.80;;;;;;5347140;26;20073;-71
2024/04/09 11:45:00;;;;;;;0.00;0.00;;;12.90;84.20;;;;;;5378698;26;20010;-72
2024/04/09 11:47:26;;;;;;;0.03;0.00;;;13.00;84.70;;;;;;5380660;26;20018;-72
2024/04/09 11:49:52;;;;;;;4.28;0.20;;;13.00;84.80;;;;;;5376231;26;20008;-72
2024/04/09 11:52:18;;;;;;;9.23;0.25;;;13.00;84.80;;;;;;5375251;26;20014;-72
2024/04/09 11:54:43;;;;;;;2.60;0.20;;;13.00;85.50;;;;;;5365808;26;20080;-72
2024/04/09 11:57:09;;;;;;;0.88;0.08;;;13.10;85.10;;;;;;5365021;26;20059;-72
2024/04/09 11:59:34;;;;;;;2.05;0.15;;;13.10;85.30;;;;;;5353340;26;20008;-71
2024/04/09 12:02:00;;;;;;;1.85;0.00;;;13.20;85.60;;;;;;5361475;26;20072;-70
2024/04/09 12:04:26;;;;;;;3.85;0.17;;;13.10;85.30;;;;;;5344237;26;20004;-71
2024/04/09 12:06:51;;;;;;;4.28;0.30;;;13.00;86.80;;;;;;5347707;26;20308;-71
2024/04/09 12:09:17;;;;;;;1.00;0.10;;;13.10;86.90;;;;;;5364638;26;20015;-71
2024/04/09 12:11:51;;;;;;;2.92;0.10;;;13.20;87.20;;;;;;5349644;26;20016;-70
2024/04/09 12:14:16;;;;;;;1.77;0.20;;;13.30;87.60;;;;;;5371982;26;20014;-70
2024/04/09 12:16:43;;;;;;;2.65;0.10;;;13.40;87.40;;;;;;5374774;26;20004;-69
2024/04/09 12:19:09;;;;;;;0.65;0.08;;;13.50;86.30;;;;;;5370647;26;20014;-71
2024/04/09 12:21:35;;;;;;;1.00;0.10;;;13.40;85.20;;;;;;5384116;26;20045;-71
2024/04/09 12:24:00;;;;;;;5.93;0.25;;;13.20;85.40;;;;;;5366651;26;20863;-71
2024/04/09 12:26:26;;;;;;;1.08;0.20;;;13.20;86.00;;;;;;5365207;26;20470;-71
2024/04/09 12:28:57;;;;;;;3.03;0.20;;;13.20;86.70;;;;;;5358521;26;20074;-69
2024/04/09 12:31:23;;;;;;;1.05;0.20;;;13.30;86.90;;;;;;5376134;26;20008;-71
2024/04/09 12:33:49;;;;;;;0.47;0.10;;;13.30;86.20;;;;;;5365813;26;20012;-69
2024/04/09 12:36:14;;;;;;;0.40;0.00;;;13.30;87.00;;;;;;5357850;26;20008;-71
2024/04/09 12:38:40;;;;;;;1.70;0.20;;;13.30;86.20;;;;;;5378640;26;20080;-72
2024/04/09 12:41:12;;;;;;;3.13;0.32;;;13.30;87.00;;;;;;5346057;26;20004;-70
2024/04/09 12:43:38;;;;;;;1.27;0.10;;;13.40;87.10;;;;;;5368915;26;20004;-73
2024/04/09 12:46:04;;;;;;;1.13;0.17;;;13.50;87.00;;;;;;5375297;26;19995;-71